Time;durP1;ratioP1;P1;durP2;ratioP2;P2;SDS_P1;SDS_P2;PMS_P1;PMS_P2;Temp;Humidity;BMP_temperature;BMP_pressure;BME280_temperature;BME280_humidity;BME280_pressure;Samples;Min_cycle;Max_cycle;Signal;HPM_P1;HPM_P2
2022/07/12 00:00:11;;;;;;;13.45;11.20;;;;;;;16.61;100.00;101074.34;5051874;28;20128;-74
2022/07/12 00:02:37;;;;;;;12.18;10.00;;;;;;;16.60;100.00;101072.69;5050671;28;20119;-73
2022/07/12 00:05:03;;;;;;;13.48;9.68;;;;;;;16.60;100.00;101078.91;5054119;28;20488;-74
2022/07/12 00:07:29;;;;;;;13.80;11.02;;;;;;;16.60;100.00;101070.00;5051492;28;20416;-73
2022/07/12 00:09:54;;;;;;;12.40;11.05;;;;;;;16.64;100.00;101069.41;5051558;28;20029;-73
2022/07/12 00:12:20;;;;;;;11.90;10.00;;;;;;;16.64;100.00;101068.56;5051416;28;20033;-72
2022/07/12 00:14:45;;;;;;;12.82;11.43;;;;;;;16.65;100.00;101071.06;5050334;28;20094;-71
2022/07/12 00:17:11;;;;;;;13.13;11.00;;;;;;;16.65;100.00;101095.28;5051450;28;20086;-72
2022/07/12 00:19:40;;;;;;;12.32;11.02;;;;;;;16.61;100.00;101128.13;5055514;28;20408;-73
2022/07/12 00:22:05;;;;;;;13.88;12.48;;;;;;;16.62;100.00;101178.19;5055844;28;20508;-72
2022/07/12 00:24:31;;;;;;;14.75;12.27;;;;;;;16.66;100.00;101152.59;5057106;28;20033;-73
2022/07/12 00:26:56;;;;;;;14.00;12.50;;;;;;;16.49;100.00;101156.56;5056550;28;20041;-71
2022/07/12 00:29:22;;;;;;;14.43;12.43;;;;;;;16.68;100.00;101139.81;5060420;28;20068;-75
2022/07/12 00:31:47;;;;;;;14.13;11.93;;;;;;;16.73;100.00;101175.00;5069367;28;20128;-72
2022/07/12 00:34:13;;;;;;;15.88;12.57;;;;;;;16.78;100.00;101140.31;5066949;28;20075;-73
2022/07/12 00:36:38;;;;;;;14.95;13.32;;;;;;;16.77;100.00;101154.81;5060136;28;20060;-73
2022/07/12 00:39:04;;;;;;;14.85;12.90;;;;;;;16.76;100.00;101150.41;5057682;28;20041;-73
2022/07/12 00:41:29;;;;;;;14.38;12.88;;;;;;;16.74;100.00;101149.78;5055012;28;20037;-73
2022/07/12 00:43:55;;;;;;;15.60;13.45;;;;;;;16.75;100.00;101135.31;5055390;28;20131;-76
2022/07/12 00:46:23;;;;;;;13.88;11.90;;;;;;;16.76;100.00;101136.13;5055115;28;20094;-74
2022/07/12 00:48:48;;;;;;;15.93;13.73;;;;;;;16.74;100.00;101136.34;5057074;28;20124;-73
2022/07/12 00:51:14;;;;;;;15.68;12.95;;;;;;;16.79;100.00;101142.00;5053705;28;20057;-71
2022/07/12 00:53:40;;;;;;;15.57;11.52;;;;;;;16.80;100.00;101137.44;5054972;28;20132;-74
2022/07/12 00:56:05;;;;;;;13.18;11.85;;;;;;;16.86;100.00;101125.91;5054743;28;20040;-72
2022/07/12 00:58:31;;;;;;;13.35;11.80;;;;;;;16.87;100.00;101123.00;5055072;28;20037;-74
2022/07/12 01:00:58;;;;;;;13.90;12.40;;;;;;;16.86;100.00;101110.59;5054749;28;20492;-74
2022/07/12 01:03:25;;;;;;;13.05;11.60;;;;;;;16.84;100.00;101096.50;5057092;28;20479;-72
2022/07/12 01:06:17;;;;;;;12.95;11.32;;;;;;;16.85;100.00;101098.16;5054582;28;20055;-73
2022/07/12 01:08:42;;;;;;;12.97;11.40;;;;;;;16.87;100.00;101109.56;5054616;28;20041;-74
2022/07/12 01:11:08;;;;;;;14.02;11.10;;;;;;;16.89;100.00;101094.06;5054626;28;20198;-74
2022/07/12 01:13:34;;;;;;;13.35;11.95;;;;;;;16.90;100.00;101090.34;5054451;28;20496;-73
2022/07/12 01:16:00;;;;;;;11.77;10.65;;;;;;;16.91;100.00;101094.69;5054527;28;20033;-73
2022/07/12 01:18:30;;;;;;;10.80;9.77;;;;;;;16.92;100.00;101092.81;5056652;28;20071;-72
2022/07/12 01:20:56;;;;;;;13.45;10.20;;;;;;;16.91;100.00;101089.31;5054796;28;20092;-75
2022/07/12 01:23:24;;;;;;;10.13;8.65;;;;;;;16.96;100.00;101086.84;5054526;28;20067;-73
2022/07/12 01:25:49;;;;;;;9.05;8.13;;;;;;;16.95;100.00;101079.81;5054246;28;20407;-73
2022/07/12 01:28:15;;;;;;;8.73;7.93;;;;;;;17.01;100.00;101092.47;5054341;28;20037;-74
2022/07/12 01:30:41;;;;;;;8.35;7.55;;;;;;;16.99;100.00;101085.63;5053706;28;20102;-74
2022/07/12 01:33:07;;;;;;;8.05;7.25;;;;;;;16.98;100.00;101087.47;5055506;28;20052;-71
2022/07/12 01:35:33;;;;;;;7.72;6.80;;;;;;;16.98;100.00;101092.88;5053970;28;20036;-70
2022/07/12 01:37:59;;;;;;;8.57;7.78;;;;;;;16.98;100.00;101097.41;5054069;28;20040;-75
2022/07/12 01:40:24;;;;;;;8.82;7.13;;;;;;;16.97;100.00;101093.91;5053779;28;20407;-74
2022/07/12 01:42:51;;;;;;;7.38;6.68;;;;;;;17.04;100.00;101102.00;5053860;28;20040;-72
2022/07/12 01:45:17;;;;;;;7.68;6.88;;;;;;;17.10;100.00;101113.88;5054040;28;20044;-74
2022/07/12 01:47:42;;;;;;;7.13;6.43;;;;;;;17.12;100.00;101119.88;5054539;28;20120;-71
2022/07/12 01:50:10;;;;;;;7.80;7.00;;;;;;;17.17;100.00;101112.88;5056260;28;20061;-73
2022/07/12 01:52:38;;;;;;;7.07;6.37;;;;;;;17.20;100.00;101106.25;5053996;28;20037;-73
2022/07/12 01:55:04;;;;;;;7.10;6.43;;;;;;;17.23;100.00;101100.47;5053764;28;20302;-73
2022/07/12 01:57:29;;;;;;;9.35;7.70;;;;;;;17.26;100.00;101094.69;5053676;28;20160;-74
2022/07/12 01:59:55;;;;;;;6.45;5.85;;;;;;;17.12;100.00;101066.06;5053668;28;20037;-71
2022/07/12 02:02:22;;;;;;;6.68;5.97;;;;;;;17.30;100.00;101085.19;5053379;28;20079;-73
2022/07/12 02:04:48;;;;;;;8.00;6.95;;;;;;;17.33;100.00;101084.78;5056270;28;20091;-73
2022/07/12 02:07:13;;;;;;;6.55;5.95;;;;;;;17.38;100.00;101095.81;5053465;28;20041;-74
2022/07/12 02:09:39;;;;;;;6.88;5.85;;;;;;;17.43;100.00;101089.84;5053630;28;20044;-72
2022/07/12 02:12:05;;;;;;;6.68;6.07;;;;;;;17.45;100.00;101094.00;5053441;28;20484;-74
2022/07/12 02:14:30;;;;;;;8.25;6.40;;;;;;;17.49;100.00;101089.84;5053545;28;20132;-73
2022/07/12 02:16:56;;;;;;;6.65;6.05;;;;;;;17.55;100.00;101091.75;5053571;28;20059;-75
2022/07/12 02:19:24;;;;;;;6.82;6.13;;;;;;;17.61;100.00;101088.25;5055871;28;20560;-75
2022/07/12 02:21:50;;;;;;;6.25;5.75;;;;;;;17.62;100.00;101079.13;5052896;28;20411;-73
2022/07/12 02:24:15;;;;;;;6.97;6.28;;;;;;;17.65;100.00;101078.75;5053186;28;20040;-74
2022/07/12 02:26:41;;;;;;;7.55;6.75;;;;;;;17.71;100.00;101082.53;5053053;28;20505;-72
2022/07/12 02:29:06;;;;;;;5.72;5.13;;;;;;;17.74;100.00;101081.31;5052663;28;20449;-74
2022/07/12 02:31:32;;;;;;;6.95;5.63;;;;;;;17.81;100.00;101077.59;5052936;28;20086;-74
2022/07/12 02:33:57;;;;;;;7.72;5.82;;;;;;;17.81;100.00;101057.91;5055105;28;20396;-74
2022/07/12 02:36:23;;;;;;;8.70;6.85;;;;;;;17.80;100.00;101062.47;5052806;28;20036;-75
2022/07/12 02:38:49;;;;;;;9.23;5.63;;;;;;;17.88;100.00;101066.81;5053112;28;20059;-73
2022/07/12 02:41:15;;;;;;;7.03;6.30;;;;;;;17.91;100.00;101072.63;5052623;28;20033;-72
2022/07/12 02:43:40;;;;;;;10.40;7.13;;;;;;;17.88;100.00;101074.91;5052119;28;20497;-73
2022/07/12 02:46:08;;;;;;;7.90;6.95;;;;;;;17.94;100.00;101077.66;5052597;28;20123;-74
2022/07/12 02:48:34;;;;;;;7.63;6.85;;;;;;;17.98;100.00;101067.28;5054689;28;20037;-72
2022/07/12 02:51:00;;;;;;;11.85;7.75;;;;;;;18.03;100.00;101066.66;5052885;28;20385;-72
2022/07/12 02:53:26;;;;;;;10.65;7.95;;;;;;;18.02;100.00;101062.31;5052536;28;20488;-72
2022/07/12 02:55:52;;;;;;;9.38;7.82;;;;;;;17.95;100.00;101048.84;5052531;28;20072;-72
2022/07/12 02:58:17;;;;;;;9.15;7.65;;;;;;;18.10;100.00;101060.25;5052493;28;20110;-71
2022/07/12 03:00:44;;;;;;;11.05;9.18;;;;;;;18.15;100.00;101068.56;5052219;28;20127;-72
2022/07/12 03:03:12;;;;;;;9.43;7.45;;;;;;;18.15;100.00;101078.50;5053607;28;20123;-70
2022/07/12 03:05:38;;;;;;;9.50;7.90;;;;;;;18.25;100.00;101084.34;5053652;28;20408;-73
2022/07/12 03:08:07;;;;;;;12.15;7.88;;;;;;;18.29;100.00;101095.53;5052607;28;20128;-73
2022/07/12 03:10:33;;;;;;;7.90;7.10;;;;;;;18.27;100.00;101064.22;5052605;28;20487;-73
2022/07/12 03:12:58;;;;;;;9.07;7.57;;;;;;;18.60;100.00;101086.84;5051321;28;20122;-74
2022/07/12 03:15:24;;;;;;;10.25;7.85;;;;;;;18.85;99.73;101088.75;5052007;28;20526;-73
2022/07/12 03:17:49;;;;;;;8.68;7.55;;;;;;;19.19;97.15;101081.44;5053657;28;20051;-73
2022/07/12 03:20:15;;;;;;;7.53;6.65;;;;;;;19.98;92.79;101077.63;5053621;28;20132;-73
2022/07/12 03:22:46;;;;;;;6.80;6.15;;;;;;;20.69;88.62;101071.94;5052008;28;20084;-71
2022/07/12 03:25:12;;;;;;;8.18;6.50;;;;;;;21.54;85.20;101069.41;5051955;28;20037;-75
2022/07/12 03:27:38;;;;;;;7.07;5.70;;;;;;;22.58;80.11;101073.56;5050806;28;20059;-72
2022/07/12 03:30:04;;;;;;;7.30;5.70;;;;;;;23.21;76.93;101061.19;5051913;28;20064;-74
2022/07/12 03:32:30;;;;;;;8.73;5.53;;;;;;;23.70;74.35;101040.75;5052663;28;20033;-72
2022/07/12 03:34:55;;;;;;;6.18;5.57;;;;;;;23.84;73.35;101054.91;5054982;28;20112;-73
2022/07/12 03:37:21;;;;;;;5.85;4.85;;;;;;;24.25;72.00;101051.81;5051894;28;20504;-76
2022/07/12 03:39:46;;;;;;;6.80;4.90;;;;;;;24.05;71.60;101046.06;5052163;28;20077;-71
2022/07/12 03:42:12;;;;;;;6.97;4.57;;;;;;;23.25;74.25;101041.44;5051671;28;20531;-75
2022/07/12 03:44:38;;;;;;;7.03;4.75;;;;;;;22.50;76.86;101031.28;5051821;28;20076;-73
2022/07/12 03:47:03;;;;;;;6.47;4.78;;;;;;;22.38;77.29;100997.91;5052347;28;20037;-71
2022/07/12 03:49:29;;;;;;;6.32;4.80;;;;;;;22.69;76.13;101028.47;5054013;28;20033;-73
2022/07/12 03:51:54;;;;;;;5.07;4.57;;;;;;;23.18;74.88;101038.06;5052575;28;20515;-74
2022/07/12 03:54:20;;;;;;;5.00;4.40;;;;;;;23.33;73.65;101030.19;5054391;28;20119;-74
2022/07/12 03:59:30;;;;;;;5.10;4.22;;;;;;;22.68;76.58;101026.84;5056025;28;20033;-73
2022/07/12 04:01:55;;;;;;;9.30;5.40;;;;;;;22.79;76.61;101034.13;5055785;28;20403;-75
2022/07/12 04:04:21;;;;;;;6.28;4.63;;;;;;;23.21;74.17;101015.84;5056836;28;20037;-73
2022/07/12 04:06:46;;;;;;;7.25;5.07;;;;;;;23.93;72.19;101012.63;5055481;28;20040;-77
2022/07/12 04:09:37;;;;;;;7.78;4.53;;;;;;;24.47;69.83;101008.41;5055747;28;20060;-73
2022/07/12 04:12:04;;;;;;;4.28;3.88;;;;;;;24.77;67.98;101018.94;5055546;28;20044;-75
2022/07/12 04:14:29;;;;;;;4.55;3.42;;;;;;;25.01;67.50;101009.50;5055280;28;20036;-73
2022/07/12 04:16:55;;;;;;;5.32;4.82;;;;;;;24.93;67.45;101033.59;5055861;28;20033;-72
2022/07/12 04:19:25;;;;;;;5.22;4.55;;;;;;;24.94;66.88;101040.69;5040887;28;20048;-74
2022/07/12 04:21:51;;;;;;;5.68;4.28;;;;;;;25.00;67.35;101048.72;5055755;28;20454;-74
2022/07/12 04:24:16;;;;;;;5.38;4.78;;;;;;;25.05;66.80;101030.78;5055420;28;20114;-75
2022/07/12 04:26:42;;;;;;;7.55;3.95;;;;;;;24.98;67.05;101039.97;5055684;28;20040;-72
2022/07/12 04:29:07;;;;;;;4.75;4.20;;;;;;;25.31;66.03;101038.22;5055844;28;20029;-74
2022/07/12 04:31:33;;;;;;;4.38;3.97;;;;;;;25.52;65.20;101037.41;5055617;28;20037;-74
2022/07/12 04:33:58;;;;;;;5.13;4.47;;;;;;;25.66;64.20;101037.81;5056248;28;20043;-74
2022/07/12 04:36:24;;;;;;;5.13;4.60;;;;;;;25.88;63.62;101035.91;5055499;28;20044;-74
2022/07/12 04:38:49;;;;;;;5.90;5.07;;;;;;;25.38;65.04;101022.50;5055314;28;20043;-75
2022/07/12 04:41:15;;;;;;;4.57;4.18;;;;;;;25.42;65.27;101041.88;5055255;28;20542;-75
2022/07/12 04:43:40;;;;;;;4.88;4.18;;;;;;;25.38;65.55;101047.03;5055317;28;20033;-74
2022/07/12 04:46:12;;;;;;;6.13;4.00;;;;;;;25.68;65.11;101051.22;5056725;28;20048;-71
2022/07/12 04:48:38;;;;;;;5.70;3.85;;;;;;;25.41;65.67;101062.88;5055152;28;20029;-74
2022/07/12 04:51:04;;;;;;;4.03;3.63;;;;;;;25.24;65.67;101037.59;5053648;28;20090;-72
2022/07/12 04:53:29;;;;;;;4.95;4.55;;;;;;;25.29;65.96;101029.47;5055209;28;20047;-72
2022/07/12 04:55:56;;;;;;;4.40;4.00;;;;;;;25.43;65.71;101027.19;5054101;28;20048;-77
2022/07/12 04:58:23;;;;;;;4.38;3.97;;;;;;;25.24;65.80;101027.50;5055285;28;20045;-75
2022/07/12 05:00:49;;;;;;;5.93;5.07;;;;;;;24.92;66.67;101021.88;5054689;28;20408;-73
2022/07/12 05:03:14;;;;;;;4.45;4.05;;;;;;;25.05;66.91;101014.44;5055773;28;20033;-75
2022/07/12 05:05:40;;;;;;;4.57;4.18;;;;;;;25.20;66.29;101026.38;5053860;28;20048;-74
2022/07/12 05:08:05;;;;;;;5.97;4.15;;;;;;;24.07;70.09;101009.34;5055047;28;20029;-72
2022/07/12 05:10:33;;;;;;;4.63;4.10;;;;;;;23.85;71.08;101016.56;5054872;28;20132;-75
2022/07/12 05:13:01;;;;;;;4.45;3.47;;;;;;;24.20;70.52;101029.97;5055278;28;20116;-76
2022/07/12 05:15:27;;;;;;;5.75;5.15;;;;;;;24.82;67.82;101016.28;5055675;28;20358;-72
2022/07/12 05:17:52;;;;;;;5.32;4.93;;;;;;;25.15;66.99;101020.84;5055792;28;20037;-72
2022/07/12 05:20:19;;;;;;;5.93;4.45;;;;;;;24.96;67.37;101016.75;5055628;28;20561;-74
2022/07/12 05:22:44;;;;;;;4.85;4.15;;;;;;;24.67;68.28;101026.97;5054743;28;20459;-76
2022/07/12 05:25:10;;;;;;;4.82;4.38;;;;;;;24.54;69.08;101027.28;5054045;28;20044;-73
2022/07/12 05:27:36;;;;;;;4.00;3.60;;;;;;;;;;5055072;28;20029;-74
2022/07/12 05:30:05;;;;;;;4.43;3.95;;;;;;;23.16;74.02;101013.84;5055063;28;20037;-71
2022/07/12 05:32:31;;;;;;;4.60;4.13;;;;;;;22.60;76.54;101009.03;5054811;28;20033;-73
2022/07/12 05:34:56;;;;;;;6.57;5.03;;;;;;;22.34;78.19;100995.91;5055685;28;20043;-72
2022/07/12 05:37:24;;;;;;;7.72;4.07;;;;;;;22.15;79.22;101004.13;5054688;28;20036;-72
2022/07/12 05:39:50;;;;;;;;;;;;;;;22.10;79.11;101011.31;5055130;28;20061;-73
2022/07/12 05:42:16;;;;;;;6.53;4.65;;;;;;;21.76;80.18;101000.09;5054367;28;20004;-75
2022/07/12 05:44:41;;;;;;;8.30;4.38;;;;;;;21.62;81.17;101001.31;5054525;28;20095;-74
2022/07/12 05:47:06;;;;;;;8.98;5.53;;;;;;;21.60;81.79;100998.03;5054598;28;20045;-72
2022/07/12 05:49:32;;;;;;;6.13;4.38;;;;;;;21.61;82.01;100994.25;5054171;28;20051;-73
2022/07/12 05:54:41;;;;;;;4.95;4.55;;;;;;;21.80;81.46;101004.00;5054269;28;20063;-72
2022/07/12 05:57:07;;;;;;;12.77;4.95;;;;;;;21.82;81.21;100990.22;5053882;28;20044;-73
2022/07/12 05:59:34;;;;;;;5.80;4.32;;;;;;;21.90;81.07;101004.25;5053877;28;20033;-73
2022/07/12 06:02:00;;;;;;;4.90;4.50;;;;;;;21.93;81.07;100998.38;5054059;28;20045;-73
2022/07/12 06:04:25;;;;;;;6.13;4.13;;;;;;;21.96;81.33;100986.22;5053814;28;20480;-74
2022/07/12 06:06:51;;;;;;;9.93;5.18;;;;;;;22.11;81.12;100993.97;5052324;28;20397;-70
2022/07/12 06:09:17;;;;;;;5.43;4.30;;;;;;;22.19;80.95;100980.06;5053715;28;20044;-74
2022/07/12 06:11:43;;;;;;;5.65;5.03;;;;;;;22.22;80.31;100985.00;5053716;28;20049;-71
2022/07/12 06:14:08;;;;;;;8.57;5.25;;;;;;;22.22;80.33;100969.56;5053608;28;20431;-74
2022/07/12 06:16:34;;;;;;;4.93;4.45;;;;;;;22.25;80.17;100968.28;5053971;28;20120;-73
2022/07/12 06:18:59;;;;;;;5.30;4.80;;;;;;;22.29;80.27;100969.47;5052369;28;20124;-76
2022/07/12 06:21:25;;;;;;;6.30;5.70;;;;;;;22.30;79.30;100948.59;5053157;28;20056;-77
2022/07/12 06:23:50;;;;;;;6.20;5.07;;;;;;;22.42;79.23;100968.41;5053577;28;20048;-73
2022/07/12 06:26:16;;;;;;;6.05;4.70;;;;;;;22.33;78.70;100959.81;5053132;28;20037;-72
2022/07/12 06:28:41;;;;;;;5.72;4.82;;;;;;;22.41;78.98;100967.59;5052942;28;20445;-72
2022/07/12 06:31:07;;;;;;;9.77;5.47;;;;;;;22.50;78.66;100981.63;5053926;28;20095;-72
2022/07/12 06:33:32;;;;;;;6.97;5.13;;;;;;;22.58;78.53;100977.75;5052150;28;20040;-72
2022/07/12 06:35:58;;;;;;;6.47;5.80;;;;;;;22.61;78.49;100967.25;5052225;28;20124;-73
2022/07/12 06:38:23;;;;;;;8.13;5.25;;;;;;;22.47;79.10;100961.22;5053095;28;20476;-73
2022/07/12 06:40:49;;;;;;;6.93;4.93;;;;;;;22.43;78.94;100970.88;5053305;28;20118;-74
2022/07/12 06:43:14;;;;;;;6.00;5.35;;;;;;;22.46;79.12;100959.56;5053147;28;20032;-77
2022/07/12 06:45:40;;;;;;;5.63;5.07;;;;;;;22.57;79.22;100960.63;5053078;28;20036;-74
2022/07/12 06:48:06;;;;;;;6.18;5.57;;;;;;;22.67;78.54;100954.59;5051993;28;20442;-74
2022/07/12 06:50:32;;;;;;;6.72;5.80;;;;;;;22.68;78.51;100961.69;5052958;28;20060;-72
2022/07/12 06:52:58;;;;;;;7.25;5.50;;;;;;;22.72;78.15;100958.25;5052687;28;20465;-71
2022/07/12 06:55:23;;;;;;;10.27;5.25;;;;;;;22.75;78.28;100956.94;5052731;28;20025;-73
2022/07/12 06:57:49;;;;;;;7.10;6.07;;;;;;;22.79;77.35;100944.53;5052397;28;20029;-76
2022/07/12 07:00:15;;;;;;;9.00;5.38;;;;;;;22.78;78.28;100951.03;5052562;28;20032;-74
2022/07/12 07:02:40;;;;;;;6.22;5.47;;;;;;;22.79;78.08;100942.66;5052265;28;20045;-72
2022/07/12 07:05:07;;;;;;;7.57;6.07;;;;;;;22.66;77.92;100950.22;5052619;28;20040;-72
2022/07/12 07:07:33;;;;;;;5.65;5.15;;;;;;;22.55;78.39;100924.72;5052258;28;20107;-72
2022/07/12 07:09:59;;;;;;;7.93;6.20;;;;;;;22.76;78.94;100942.31;5051874;28;20510;-69
2022/07/12 07:12:49;;;;;;;7.32;6.63;;;;;;;22.90;77.97;100943.75;5052398;28;20114;-69
2022/07/12 07:15:16;;;;;;;7.20;6.40;;;;;;;22.99;77.21;100934.16;5051999;28;20044;-72
2022/07/12 07:17:42;;;;;;;8.00;6.30;;;;;;;23.29;76.84;100935.81;5052146;28;20032;-76
2022/07/12 07:20:10;;;;;;;6.72;6.03;;;;;;;23.62;76.01;100929.66;5052468;28;20069;-73
2022/07/12 07:22:37;;;;;;;8.13;6.22;;;;;;;23.75;74.79;100922.03;5052099;28;20052;-72
2022/07/12 07:25:04;;;;;;;10.23;6.05;;;;;;;23.93;74.36;100931.84;5052117;28;20041;-71
2022/07/12 07:27:29;;;;;;;7.53;6.05;;;;;;;24.14;74.30;100940.34;5052348;28;20115;-71
2022/07/12 07:32:39;;;;;;;6.85;6.22;;;;;;;24.46;72.68;100954.19;5053049;28;20036;-71
2022/07/12 07:35:05;;;;;;;8.10;6.53;;;;;;;24.33;72.74;100942.59;5052197;28;20496;-70
2022/07/12 07:37:32;;;;;;;8.70;6.70;;;;;;;24.25;73.50;100940.25;5064424;28;20040;-71
2022/07/12 07:39:58;;;;;;;16.13;6.90;;;;;;;24.40;73.52;100931.53;5068345;28;20025;-73
2022/07/12 07:42:23;;;;;;;11.93;6.65;;;;;;;24.68;72.67;100945.00;5070030;28;20044;-70
2022/07/12 07:44:49;;;;;;;14.95;6.43;;;;;;;24.62;72.10;100943.28;5067699;28;20044;-69
2022/07/12 07:47:14;;;;;;;17.25;6.18;;;;;;;24.43;72.41;100933.75;5062258;28;20535;-70
2022/07/12 07:49:40;;;;;;;11.35;6.47;;;;;;;24.45;72.70;100949.84;5052986;28;20091;-73
2022/07/12 07:52:05;;;;;;;7.75;6.93;;;;;;;24.62;73.00;100945.19;5052192;28;20061;-70
2022/07/12 07:54:31;;;;;;;14.15;7.00;;;;;;;24.70;72.02;100939.31;5052258;28;20380;-71
2022/07/12 07:56:56;;;;;;;9.63;7.47;;;;;;;24.64;72.13;100943.03;5051812;28;20125;-70
2022/07/12 07:59:22;;;;;;;8.43;7.63;;;;;;;24.52;71.97;100940.41;5052159;28;20484;-68
2022/07/12 08:01:53;;;;;;;10.75;7.63;;;;;;;24.34;72.05;100922.47;5050945;28;20135;-71
2022/07/12 08:04:25;;;;;;;15.55;7.75;;;;;;;24.44;72.30;100932.69;5055136;28;20029;-71
2022/07/12 08:06:50;;;;;;;6.65;6.05;;;;;;;24.52;71.81;100915.91;5057045;28;20125;-73
2022/07/12 08:09:16;;;;;;;12.75;6.88;;;;;;;24.67;71.71;100920.75;5051743;28;20119;-72
2022/07/12 08:11:42;;;;;;;15.73;7.72;;;;;;;24.76;71.44;100930.13;5057645;28;20039;-74
2022/07/12 08:14:12;;;;;;;15.20;7.30;;;;;;;24.80;71.36;100928.53;5057542;28;20044;-70
2022/07/12 08:16:38;;;;;;;19.05;7.88;;;;;;;24.77;71.02;100931.78;5051946;28;20381;-70
2022/07/12 08:19:04;;;;;;;17.60;8.23;;;;;;;24.72;71.62;100928.97;5052078;28;20033;-78
2022/07/12 08:21:31;;;;;;;40.15;10.30;;;;;;;24.88;71.13;100933.56;5051604;28;20060;-74
2022/07/12 08:24:05;;;;;;;45.47;8.93;;;;;;;25.02;71.14;100929.41;5052210;28;20134;-77
2022/07/12 08:26:31;;;;;;;14.38;7.47;;;;;;;24.95;70.92;100928.75;5033958;28;20025;-69
2022/07/12 08:28:57;;;;;;;16.90;7.38;;;;;;;24.92;71.00;100923.81;5051475;28;20454;-71
2022/07/12 08:31:22;;;;;;;13.82;6.88;;;;;;;24.94;71.11;100926.28;5051766;28;20025;-70
2022/07/12 08:33:49;;;;;;;13.35;8.30;;;;;;;24.69;70.96;100910.44;5051813;28;20033;-73
2022/07/12 08:36:14;;;;;;;16.75;8.35;;;;;;;24.66;71.34;100914.47;5034018;28;20025;-73
2022/07/12 08:38:43;;;;;;;14.52;7.28;;;;;;;24.64;71.93;100915.81;5051857;28;20485;-73
2022/07/12 08:41:11;;;;;;;8.27;6.60;;;;;;;24.58;71.98;100919.53;5053171;28;20067;-72
2022/07/12 08:43:37;;;;;;;12.80;7.82;;;;;;;24.74;72.37;100915.94;5055405;28;20138;-66
2022/07/12 08:46:07;;;;;;;9.35;7.78;;;;;;;24.94;71.82;100924.38;5054804;28;20094;-71
2022/07/12 08:48:37;;;;;;;8.95;7.85;;;;;;;25.07;71.06;100919.63;5055178;28;20039;-69
2022/07/12 08:51:06;;;;;;;22.38;8.73;;;;;;;25.05;71.11;100916.34;5055894;28;20059;-67
2022/07/12 08:53:32;;;;;;;7.78;7.07;;;;;;;24.90;71.79;100923.25;5056124;28;20033;-72
2022/07/12 08:55:59;;;;;;;7.60;6.90;;;;;;;24.75;71.84;100923.03;5057252;28;20563;-68
2022/07/12 08:58:25;;;;;;;9.63;7.85;;;;;;;24.62;72.77;100902.44;5057325;28;20416;-74
2022/07/12 09:00:51;;;;;;;9.68;8.77;;;;;;;24.55;73.28;100903.69;5055863;28;20067;-68
2022/07/12 09:03:17;;;;;;;8.40;7.55;;;;;;;24.49;72.96;100912.84;5058740;28;20091;-69
2022/07/12 09:05:54;;;;;;;9.48;8.25;;;;;;;24.57;73.82;100909.69;5055773;28;20029;-70
2022/07/12 09:08:34;;;;;;;8.38;7.60;;;;;;;24.54;72.90;100915.66;5055094;28;20079;-71
2022/07/12 09:11:02;;;;;;;8.38;7.55;;;;;;;24.54;73.12;100910.19;5055174;28;20499;-70
2022/07/12 09:13:45;;;;;;;;;;;;;;;24.67;73.05;100923.47;5054795;28;20515;-72
2022/07/12 09:16:15;;;;;;;13.25;8.50;;;;;;;24.71;72.21;100919.16;5055648;28;20395;-73
2022/07/12 09:18:42;;;;;;;18.77;8.50;;;;;;;24.72;71.64;100918.09;5056674;28;20112;-74
2022/07/12 09:21:10;;;;;;;11.48;8.50;;;;;;;24.68;71.62;100906.06;5056106;28;20226;-70
2022/07/12 09:23:35;;;;;;;10.63;8.52;;;;;;;24.89;71.08;100916.13;5055420;28;20546;-72
2022/07/12 09:26:07;;;;;;;10.07;8.10;;;;;;;24.93;70.65;100909.09;5054574;28;20041;-72
2022/07/12 09:28:33;;;;;;;11.43;10.43;;;;;;;25.19;71.14;100914.88;5055547;28;20404;-73
2022/07/12 09:30:58;;;;;;;11.85;9.18;;;;;;;25.27;69.96;100922.59;5057031;28;20041;-75
2022/07/12 09:38:38;;;;;;;13.63;8.20;;;;;;;25.50;69.37;100922.31;5053533;28;20033;-71
2022/07/12 09:41:09;;;;;;;11.57;8.40;;;;;;;25.45;69.42;100911.34;5053977;28;20041;-70
2022/07/12 09:43:35;;;;;;;9.50;8.52;;;;;;;25.50;69.81;100914.13;5054280;28;20060;-73
2022/07/12 09:46:01;;;;;;;9.32;8.15;;;;;;;25.56;70.10;100912.25;5054469;28;20061;-73
2022/07/12 09:48:31;;;;;;;11.18;9.27;;;;;;;25.51;70.18;100931.31;5053997;28;20037;-71
2022/07/12 09:50:58;;;;;;;9.50;8.60;;;;;;;25.42;70.39;100909.13;5054291;28;20140;-71
2022/07/12 09:53:33;;;;;;;19.93;9.00;;;;;;;25.42;71.02;100911.03;5053969;28;20037;-72
2022/07/12 09:56:04;;;;;;;10.38;9.13;;;;;;;25.48;69.24;100910.00;5054019;28;20286;-70
2022/07/12 09:58:44;;;;;;;10.82;8.65;;;;;;;25.48;70.32;100907.28;5053834;28;20503;-72
2022/07/12 10:01:10;;;;;;;24.33;18.23;;;;;;;25.27;70.99;100885.25;5054040;28;20029;-71
2022/07/12 10:03:39;;;;;;;13.20;9.85;;;;;;;25.37;71.64;100889.97;5054106;28;20032;-70
2022/07/12 10:06:05;;;;;;;73.40;15.02;;;;;;;25.40;71.57;100894.09;5053332;28;20037;-68
2022/07/12 10:08:33;;;;;;;105.97;18.77;;;;;;;25.42;70.24;100898.22;5053556;28;20056;-69
2022/07/12 10:10:58;;;;;;;32.08;9.40;;;;;;;25.44;70.35;100895.22;5053574;28;20040;-68
2022/07/12 10:13:25;;;;;;;18.92;8.68;;;;;;;25.37;70.66;100887.25;5053455;28;20447;-71
2022/07/12 10:15:57;;;;;;;8.80;7.90;;;;;;;25.42;71.02;100895.47;5053734;28;20043;-70
2022/07/12 10:18:23;;;;;;;14.68;8.32;;;;;;;25.43;70.30;100880.75;5053359;28;20045;-72
2022/07/12 10:20:49;;;;;;;20.67;8.45;;;;;;;25.41;69.58;100877.47;5053524;28;20052;-74
2022/07/12 10:23:34;;;;;;;21.45;10.52;;;;;;;25.46;70.22;100876.72;5035331;28;20045;-70
2022/07/12 10:26:15;;;;;;;12.45;11.23;;;;;;;25.45;70.79;100873.19;5053304;28;20032;-71
2022/07/12 10:29:04;;;;;;;15.65;12.57;;;;;;;25.56;71.36;100863.19;5052955;28;20036;-72
2022/07/12 10:31:34;;;;;;;15.32;10.25;;;;;;;25.56;71.02;100855.81;5053513;28;20032;-70
2022/07/12 10:34:21;;;;;;;13.55;10.13;;;;;;;25.61;69.49;100844.94;5053998;28;20043;-73
2022/07/12 10:36:55;;;;;;;9.07;8.23;;;;;;;25.68;68.96;100842.03;5053641;28;20131;-70
2022/07/12 10:39:23;;;;;;;8.23;7.28;;;;;;;25.73;68.14;100835.78;5052824;28;20571;-74
2022/07/12 10:42:12;;;;;;;34.78;10.95;;;;;;;25.78;68.33;100833.13;5053297;28;20151;-72
2022/07/12 10:44:41;;;;;;;13.43;8.52;;;;;;;25.85;68.22;100828.25;5052999;28;20033;-74
2022/07/12 10:47:08;;;;;;;21.50;9.38;;;;;;;25.92;68.16;100826.09;5052779;28;20447;-69
2022/07/12 10:49:35;;;;;;;11.90;9.13;;;;;;;25.96;68.10;100835.41;5052772;28;20527;-72
2022/07/12 10:52:10;;;;;;;10.43;9.13;;;;;;;26.04;68.48;100825.94;5052941;28;20040;-69
2022/07/12 10:54:40;;;;;;;13.27;9.90;;;;;;;26.11;68.38;100826.50;5052633;28;20041;-70
2022/07/12 10:57:06;;;;;;;15.50;9.52;;;;;;;26.16;68.11;100818.34;5052588;28;20407;-70
2022/07/12 10:59:37;;;;;;;12.35;9.70;;;;;;;26.14;67.86;100824.06;5052447;28;20115;-68
2022/07/12 11:02:03;;;;;;;11.48;9.75;;;;;;;26.11;68.63;100810.97;5052370;28;20131;-68
2022/07/12 11:04:29;;;;;;;14.23;9.05;;;;;;;26.15;67.81;100825.72;5051656;28;20043;-69
2022/07/12 11:06:56;;;;;;;9.73;8.70;;;;;;;26.19;68.63;100824.09;5052435;28;20439;-67
2022/07/12 11:09:23;;;;;;;10.95;8.82;;;;;;;26.15;67.43;100814.78;5052364;28;20509;-68
2022/07/12 11:11:51;;;;;;;14.90;8.20;;;;;;;26.14;67.42;100821.34;5052213;28;20170;-70
2022/07/12 11:14:32;;;;;;;11.98;8.65;;;;;;;26.27;67.80;100820.03;5052333;28;20086;-69
2022/07/12 11:16:59;;;;;;;11.70;8.48;;;;;;;26.36;66.44;100831.31;5051941;28;20037;-73
2022/07/12 11:19:33;;;;;;;10.77;8.75;;;;;;;26.36;67.02;100823.97;5052214;28;20111;-70
2022/07/12 11:21:58;;;;;;;10.18;8.40;;;;;;;26.30;67.61;100821.41;5052174;28;20048;-71
2022/07/12 11:24:27;;;;;;;11.20;9.38;;;;;;;26.35;67.70;100832.41;5052315;28;20463;-70
2022/07/12 11:26:53;;;;;;;11.82;9.90;;;;;;;26.31;67.09;100820.31;5052110;28;20049;-72
2022/07/12 11:29:19;;;;;;;10.77;8.90;;;;;;;26.42;67.51;100830.25;5052021;28;20037;-77
2022/07/12 11:31:45;;;;;;;19.35;9.10;;;;;;;26.35;67.38;100802.38;5052066;28;20468;-74